AVA9571 SKCL-SEQM
Flight info
| Callsign | AVA9571 |
|---|---|
| Flight time | 0h 54m |
| Altitude | 24000 |
| Route | CLO1C CLO R567 PPN W48 MER G675 IPI/N0415F230 G675 QIT |
| Aircraft | A319/M-SDE3FGHIRWY/LB1 |
Departure
| Time | 2026-04-26 18:53 |
|---|---|
| Airport | Alfonso Bonilla Aragon International Airport (SKCL) |
Arrival
| Time | 2026-04-26 19:47 |
|---|---|
| Airport | Mariscal Sucre International Airport (SEQM) |
| Time | Latitude | Longitude | Altitude | Speed | Heading |
|---|---|---|---|---|---|
| 2026-04-26 18:50 | 3.55629 | -76.37943 | 3174 ft | 0 kts | 189° |
| 2026-04-26 18:52 | 3.55593 | -76.37950 | 3172 ft | 20 kts | 189° |
| 2026-04-26 18:53 | 3.55273 | -76.38005 | 3169 ft | 74 kts | 190° |
| 2026-04-26 18:53 | 3.54578 | -76.38123 | 3165 ft | 127 kts | 190° |
| 2026-04-26 18:53 | 3.53550 | -76.38307 | 3201 ft | 170 kts | 191° |
| 2026-04-26 18:53 | 3.52376 | -76.38511 | 3785 ft | 174 kts | 191° |
| 2026-04-26 18:54 | 3.51169 | -76.38703 | 4431 ft | 178 kts | 190° |
| 2026-04-26 18:54 | 3.49928 | -76.38813 | 5096 ft | 180 kts | 185° |
| 2026-04-26 18:54 | 3.48678 | -76.38798 | 5748 ft | 180 kts | 179° |
| 2026-04-26 18:54 | 3.47390 | -76.38783 | 6162 ft | 195 kts | 189° |
| 2026-04-26 18:55 | 3.45990 | -76.39061 | 6455 ft | 217 kts | 196° |
| 2026-04-26 18:55 | 3.44451 | -76.39462 | 6775 ft | 241 kts | 197° |
| 2026-04-26 18:55 | 3.42754 | -76.39920 | 7243 ft | 265 kts | 197° |
| 2026-04-26 18:55 | 3.40923 | -76.40406 | 7939 ft | 278 kts | 197° |
| 2026-04-26 18:56 | 3.39033 | -76.40885 | 8829 ft | 283 kts | 197° |
| 2026-04-26 18:56 | 3.37104 | -76.41329 | 9729 ft | 287 kts | 196° |
| 2026-04-26 18:56 | 3.35128 | -76.41760 | 10375 ft | 301 kts | 196° |
| 2026-04-26 18:56 | 3.33006 | -76.42220 | 10672 ft | 324 kts | 196° |
| 2026-04-26 18:57 | 3.30749 | -76.42708 | 11138 ft | 339 kts | 197° |
| 2026-04-26 18:57 | 3.29208 | -76.43041 | 11609 ft | 342 kts | 197° |
| 2026-04-26 18:57 | 3.26092 | -76.43715 | 12631 ft | 346 kts | 198° |
| 2026-04-26 18:57 | 3.23733 | -76.44226 | 13380 ft | 349 kts | 199° |
| 2026-04-26 18:58 | 3.21357 | -76.44743 | 14111 ft | 351 kts | 199° |
| 2026-04-26 18:58 | 3.18968 | -76.45265 | 14816 ft | 354 kts | 200° |
| 2026-04-26 18:58 | 3.16557 | -76.45793 | 15519 ft | 356 kts | 200° |
| 2026-04-26 18:58 | 3.14133 | -76.46324 | 16209 ft | 359 kts | 201° |
| 2026-04-26 18:59 | 3.11690 | -76.46854 | 16883 ft | 361 kts | 201° |
| 2026-04-26 18:59 | 3.09227 | -76.47389 | 17546 ft | 364 kts | 202° |
| 2026-04-26 18:59 | 3.06755 | -76.47927 | 18205 ft | 366 kts | 202° |
| 2026-04-26 18:59 | 3.04267 | -76.48472 | 18853 ft | 368 kts | 203° |
| 2026-04-26 19:00 | 3.01764 | -76.49022 | 19491 ft | 370 kts | 204° |
| 2026-04-26 19:00 | 2.99241 | -76.49573 | 20104 ft | 373 kts | 204° |
| 2026-04-26 19:00 | 2.96700 | -76.50128 | 20701 ft | 376 kts | 203° |
| 2026-04-26 19:00 | 2.94140 | -76.50688 | 21246 ft | 380 kts | 203° |
| 2026-04-26 19:01 | 2.91551 | -76.51256 | 21777 ft | 383 kts | 203° |
| 2026-04-26 19:01 | 2.88939 | -76.51826 | 22305 ft | 387 kts | 203° |
| 2026-04-26 19:01 | 2.86308 | -76.52397 | 22789 ft | 390 kts | 203° |
| 2026-04-26 19:01 | 2.83653 | -76.52972 | 23270 ft | 393 kts | 203° |
| 2026-04-26 19:02 | 2.80977 | -76.53553 | 23746 ft | 396 kts | 203° |
| 2026-04-26 19:02 | 2.78287 | -76.54136 | 23966 ft | 397 kts | 203° |
| 2026-04-26 19:02 | 2.75603 | -76.54717 | 24012 ft | 395 kts | 203° |
| 2026-04-26 19:02 | 2.73817 | -76.55104 | 24011 ft | 394 kts | 203° |
| 2026-04-26 19:03 | 2.70254 | -76.55880 | 24013 ft | 394 kts | 203° |
| 2026-04-26 19:03 | 2.67583 | -76.56467 | 24011 ft | 394 kts | 203° |
| 2026-04-26 19:03 | 2.64916 | -76.57050 | 24012 ft | 394 kts | 203° |
| 2026-04-26 19:03 | 2.62244 | -76.57631 | 24011 ft | 394 kts | 203° |
| 2026-04-26 19:04 | 2.59573 | -76.58213 | 24014 ft | 394 kts | 203° |
| 2026-04-26 19:04 | 2.56904 | -76.58796 | 24011 ft | 394 kts | 203° |
| 2026-04-26 19:04 | 2.54233 | -76.59380 | 24010 ft | 394 kts | 203° |
| 2026-04-26 19:04 | 2.51562 | -76.59961 | 24010 ft | 393 kts | 203° |
| 2026-04-26 19:05 | 2.46297 | -76.61270 | 24001 ft | 382 kts | 211° |
| 2026-04-26 19:05 | 2.43943 | -76.62393 | 23999 ft | 371 kts | 220° |
| 2026-04-26 19:05 | 2.41873 | -76.63857 | 23997 ft | 361 kts | 228° |
| 2026-04-26 19:06 | 2.39938 | -76.65452 | 23995 ft | 362 kts | 228° |
| 2026-04-26 19:06 | 2.37994 | -76.67042 | 23994 ft | 362 kts | 227° |
| 2026-04-26 19:06 | 2.36045 | -76.68628 | 23993 ft | 362 kts | 227° |
| 2026-04-26 19:06 | 2.34092 | -76.70214 | 23994 ft | 362 kts | 227° |
| 2026-04-26 19:07 | 2.32142 | -76.71797 | 23994 ft | 362 kts | 228° |
| 2026-04-26 19:07 | 2.30193 | -76.73382 | 23995 ft | 362 kts | 227° |
| 2026-04-26 19:07 | 2.28243 | -76.74966 | 23996 ft | 362 kts | 227° |
| 2026-04-26 19:07 | 2.26295 | -76.76551 | 23994 ft | 362 kts | 227° |
| 2026-04-26 19:08 | 2.24349 | -76.78137 | 23992 ft | 362 kts | 227° |
| 2026-04-26 19:08 | 2.22400 | -76.79723 | 23993 ft | 362 kts | 227° |
| 2026-04-26 19:08 | 2.20453 | -76.81307 | 23992 ft | 362 kts | 227° |
| 2026-04-26 19:08 | 2.18502 | -76.82893 | 23994 ft | 362 kts | 227° |
| 2026-04-26 19:09 | 2.16553 | -76.84480 | 23993 ft | 362 kts | 227° |
| 2026-04-26 19:09 | 2.14603 | -76.86069 | 23991 ft | 362 kts | 228° |
| 2026-04-26 19:09 | 2.12656 | -76.87658 | 23992 ft | 362 kts | 227° |
| 2026-04-26 19:09 | 2.10708 | -76.89246 | 23993 ft | 362 kts | 227° |
| 2026-04-26 19:10 | 2.08756 | -76.90833 | 23994 ft | 363 kts | 227° |
| 2026-04-26 19:10 | 2.06802 | -76.92420 | 23992 ft | 362 kts | 227° |
| 2026-04-26 19:10 | 2.04847 | -76.94008 | 23996 ft | 363 kts | 227° |
| 2026-04-26 19:10 | 2.02889 | -76.95599 | 23997 ft | 363 kts | 227° |
| 2026-04-26 19:11 | 2.00936 | -76.97188 | 23999 ft | 363 kts | 227° |
| 2026-04-26 19:11 | 1.98982 | -76.98778 | 24000 ft | 363 kts | 227° |
| 2026-04-26 19:11 | 1.97031 | -77.00367 | 23999 ft | 362 kts | 227° |
| 2026-04-26 19:11 | 1.95083 | -77.01953 | 23996 ft | 362 kts | 227° |
| 2026-04-26 19:12 | 1.93133 | -77.03541 | 23996 ft | 362 kts | 227° |
| 2026-04-26 19:12 | 1.91183 | -77.05128 | 23996 ft | 362 kts | 227° |
| 2026-04-26 19:12 | 1.89236 | -77.06713 | 23996 ft | 362 kts | 227° |
| 2026-04-26 19:12 | 1.87287 | -77.08299 | 23998 ft | 362 kts | 227° |
| 2026-04-26 19:13 | 1.85340 | -77.09883 | 23999 ft | 362 kts | 227° |
| 2026-04-26 19:13 | 1.83390 | -77.11472 | 23997 ft | 362 kts | 227° |
| 2026-04-26 19:13 | 1.81444 | -77.13060 | 23998 ft | 362 kts | 227° |
| 2026-04-26 19:13 | 1.79500 | -77.14647 | 23990 ft | 360 kts | 228° |
| 2026-04-26 19:14 | 1.77753 | -77.16387 | 23993 ft | 354 kts | 235° |
| 2026-04-26 19:14 | 1.76108 | -77.18212 | 23996 ft | 354 kts | 235° |
| 2026-04-26 19:14 | 1.74459 | -77.20037 | 23994 ft | 354 kts | 235° |
| 2026-04-26 19:14 | 1.73362 | -77.21253 | 23995 ft | 354 kts | 235° |
| 2026-04-26 19:15 | 1.71167 | -77.23684 | 23990 ft | 354 kts | 235° |
| 2026-04-26 19:15 | 1.69519 | -77.25508 | 23990 ft | 354 kts | 235° |
| 2026-04-26 19:15 | 1.67876 | -77.27327 | 23987 ft | 353 kts | 235° |
| 2026-04-26 19:15 | 1.66231 | -77.29147 | 23989 ft | 354 kts | 235° |
| 2026-04-26 19:16 | 1.64585 | -77.30966 | 23981 ft | 353 kts | 235° |
| 2026-04-26 19:16 | 1.62942 | -77.32780 | 23986 ft | 353 kts | 235° |
| 2026-04-26 19:16 | 1.61297 | -77.34599 | 23983 ft | 354 kts | 235° |
| 2026-04-26 19:16 | 1.59647 | -77.36425 | 23987 ft | 355 kts | 235° |
| 2026-04-26 19:17 | 1.57998 | -77.38251 | 23989 ft | 355 kts | 235° |
| 2026-04-26 19:17 | 1.56346 | -77.40078 | 23991 ft | 355 kts | 234° |
| 2026-04-26 19:17 | 1.54700 | -77.41898 | 23983 ft | 352 kts | 235° |
| 2026-04-26 19:17 | 1.53066 | -77.43708 | 23993 ft | 352 kts | 235° |
| 2026-04-26 19:18 | 1.51422 | -77.45529 | 23995 ft | 354 kts | 235° |
| 2026-04-26 19:18 | 1.49777 | -77.47350 | 23995 ft | 354 kts | 235° |
| 2026-04-26 19:18 | 1.48126 | -77.49177 | 23994 ft | 357 kts | 235° |
| 2026-04-26 19:18 | 1.46465 | -77.51019 | 24013 ft | 357 kts | 235° |
| 2026-04-26 19:19 | 1.44810 | -77.52850 | 24011 ft | 355 kts | 235° |
| 2026-04-26 19:19 | 1.43155 | -77.54681 | 24015 ft | 356 kts | 235° |
| 2026-04-26 19:19 | 1.41501 | -77.56512 | 24008 ft | 355 kts | 235° |
| 2026-04-26 19:19 | 1.39846 | -77.58340 | 24016 ft | 356 kts | 235° |
| 2026-04-26 19:20 | 1.38187 | -77.60171 | 24004 ft | 356 kts | 235° |
| 2026-04-26 19:20 | 1.37081 | -77.61393 | 24009 ft | 356 kts | 235° |
| 2026-04-26 19:20 | 1.34870 | -77.63836 | 24011 ft | 356 kts | 235° |
| 2026-04-26 19:20 | 1.33216 | -77.65667 | 24020 ft | 356 kts | 235° |
| 2026-04-26 19:21 | 1.31560 | -77.67498 | 24014 ft | 356 kts | 235° |
| 2026-04-26 19:21 | 1.29904 | -77.69326 | 24012 ft | 356 kts | 235° |
| 2026-04-26 19:21 | 1.28248 | -77.71154 | 24011 ft | 356 kts | 235° |
| 2026-04-26 19:21 | 1.26590 | -77.72986 | 24008 ft | 356 kts | 235° |
| 2026-04-26 19:22 | 1.24937 | -77.74816 | 24004 ft | 355 kts | 235° |
| 2026-04-26 19:22 | 1.23290 | -77.76642 | 23999 ft | 354 kts | 235° |
| 2026-04-26 19:22 | 1.21650 | -77.78459 | 23998 ft | 353 kts | 235° |
| 2026-04-26 19:22 | 1.20001 | -77.80283 | 23999 ft | 355 kts | 235° |
| 2026-04-26 19:23 | 1.18349 | -77.82108 | 23999 ft | 355 kts | 235° |
| 2026-04-26 19:23 | 1.16699 | -77.83932 | 24002 ft | 356 kts | 235° |
| 2026-04-26 19:23 | 1.15043 | -77.85766 | 24000 ft | 356 kts | 235° |
| 2026-04-26 19:23 | 1.13389 | -77.87599 | 23997 ft | 356 kts | 235° |
| 2026-04-26 19:24 | 1.11738 | -77.89432 | 23998 ft | 356 kts | 235° |
| 2026-04-26 19:24 | 1.10084 | -77.91265 | 24000 ft | 356 kts | 235° |
| 2026-04-26 19:24 | 1.06776 | -77.94919 | 24004 ft | 355 kts | 235° |
| 2026-04-26 19:25 | 1.05124 | -77.96744 | 24005 ft | 355 kts | 235° |
| 2026-04-26 19:25 | 1.04024 | -77.97960 | 24004 ft | 354 kts | 235° |
| 2026-04-26 19:25 | 1.01823 | -78.00391 | 24007 ft | 355 kts | 235° |
| 2026-04-26 19:25 | 1.00168 | -78.02219 | 24004 ft | 355 kts | 235° |
| 2026-04-26 19:26 | 0.98520 | -78.04043 | 24003 ft | 355 kts | 235° |
| 2026-04-26 19:26 | 0.96871 | -78.05868 | 24001 ft | 354 kts | 235° |
| 2026-04-26 19:26 | 0.95223 | -78.07691 | 24000 ft | 355 kts | 235° |
| 2026-04-26 19:26 | 0.93575 | -78.09514 | 23991 ft | 353 kts | 236° |
| 2026-04-26 19:27 | 0.91926 | -78.11335 | 24008 ft | 355 kts | 236° |
| 2026-04-26 19:27 | 0.90267 | -78.13167 | 24001 ft | 355 kts | 235° |
| 2026-04-26 19:27 | 0.88615 | -78.14990 | 23997 ft | 354 kts | 235° |
| 2026-04-26 19:27 | 0.86964 | -78.16817 | 23997 ft | 355 kts | 235° |
| 2026-04-26 19:28 | 0.85314 | -78.18644 | 23996 ft | 355 kts | 235° |
| 2026-04-26 19:28 | 0.83664 | -78.20467 | 23996 ft | 354 kts | 235° |
| 2026-04-26 19:28 | 0.82016 | -78.22289 | 23988 ft | 353 kts | 235° |
| 2026-04-26 19:28 | 0.80372 | -78.24110 | 23997 ft | 354 kts | 235° |
| 2026-04-26 19:29 | 0.78727 | -78.25932 | 23994 ft | 354 kts | 235° |
| 2026-04-26 19:29 | 0.77080 | -78.27753 | 23996 ft | 354 kts | 235° |
| 2026-04-26 19:29 | 0.75431 | -78.29575 | 23994 ft | 354 kts | 236° |
| 2026-04-26 19:29 | 0.73784 | -78.31396 | 23994 ft | 355 kts | 235° |
| 2026-04-26 19:30 | 0.72134 | -78.33220 | 23994 ft | 355 kts | 235° |
| 2026-04-26 19:30 | 0.70480 | -78.35046 | 23992 ft | 355 kts | 235° |
| 2026-04-26 19:30 | 0.68829 | -78.36870 | 24001 ft | 355 kts | 235° |
| 2026-04-26 19:30 | 0.67727 | -78.38088 | 23999 ft | 355 kts | 235° |
| 2026-04-26 19:31 | 0.65527 | -78.40523 | 23998 ft | 355 kts | 235° |
| 2026-04-26 19:31 | 0.63877 | -78.42346 | 24000 ft | 355 kts | 235° |
| 2026-04-26 19:31 | 0.62226 | -78.44169 | 24002 ft | 355 kts | 235° |
| 2026-04-26 19:31 | 0.60575 | -78.45995 | 24003 ft | 355 kts | 235° |
| 2026-04-26 19:32 | 0.58925 | -78.47822 | 24002 ft | 354 kts | 235° |
| 2026-04-26 19:32 | 0.57277 | -78.49647 | 24002 ft | 355 kts | 235° |
| 2026-04-26 19:32 | 0.55628 | -78.51471 | 24004 ft | 355 kts | 235° |
| 2026-04-26 19:32 | 0.53975 | -78.53300 | 24006 ft | 355 kts | 235° |
| 2026-04-26 19:33 | 0.52325 | -78.55125 | 24004 ft | 355 kts | 234° |
| 2026-04-26 19:33 | 0.50469 | -78.56788 | 24008 ft | 365 kts | 224° |
| 2026-04-26 19:33 | 0.48220 | -78.58042 | 23990 ft | 378 kts | 212° |
| 2026-04-26 19:33 | 0.45651 | -78.58777 | 23992 ft | 393 kts | 201° |
| 2026-04-26 19:34 | 0.42968 | -78.59272 | 23991 ft | 394 kts | 201° |
| 2026-04-26 19:34 | 0.40277 | -78.59772 | 23993 ft | 394 kts | 201° |
| 2026-04-26 19:34 | 0.37588 | -78.60276 | 23992 ft | 394 kts | 201° |
| 2026-04-26 19:34 | 0.34898 | -78.60787 | 23991 ft | 394 kts | 201° |
| 2026-04-26 19:35 | 0.32209 | -78.61304 | 23983 ft | 394 kts | 201° |
| 2026-04-26 19:35 | 0.29525 | -78.61815 | 23903 ft | 391 kts | 201° |
| 2026-04-26 19:35 | 0.26860 | -78.62317 | 23326 ft | 391 kts | 201° |
| 2026-04-26 19:35 | 0.24113 | -78.62582 | 22623 ft | 405 kts | 191° |
| 2026-04-26 19:36 | 0.21262 | -78.62358 | 21917 ft | 418 kts | 181° |
| 2026-04-26 19:36 | 0.19360 | -78.61915 | 21450 ft | 428 kts | 174° |
| 2026-04-26 19:36 | 0.15565 | -78.60722 | 20514 ft | 430 kts | 173° |
| 2026-04-26 19:36 | 0.12723 | -78.59830 | 19730 ft | 430 kts | 173° |
| 2026-04-26 19:37 | 0.09867 | -78.58944 | 18879 ft | 432 kts | 172° |
| 2026-04-26 19:37 | 0.06993 | -78.58056 | 18007 ft | 433 kts | 171° |
| 2026-04-26 19:37 | 0.04122 | -78.57168 | 17171 ft | 433 kts | 171° |
| 2026-04-26 19:37 | 0.01257 | -78.56279 | 16316 ft | 430 kts | 171° |
| 2026-04-26 19:38 | -0.01594 | -78.55393 | 15466 ft | 430 kts | 169° |
| 2026-04-26 19:38 | -0.04425 | -78.54511 | 14928 ft | 421 kts | 169° |
| 2026-04-26 19:38 | -0.07154 | -78.53655 | 14734 ft | 404 kts | 169° |
| 2026-04-26 19:38 | -0.09764 | -78.52835 | 14705 ft | 383 kts | 169° |
| 2026-04-26 19:39 | -0.12269 | -78.52053 | 14714 ft | 376 kts | 170° |
| 2026-04-26 19:39 | -0.14760 | -78.51285 | 14721 ft | 375 kts | 170° |
| 2026-04-26 19:39 | -0.17251 | -78.50522 | 14723 ft | 376 kts | 170° |
| 2026-04-26 19:39 | -0.19742 | -78.49757 | 14724 ft | 375 kts | 170° |
| 2026-04-26 19:40 | -0.22229 | -78.48987 | 14723 ft | 374 kts | 170° |
| 2026-04-26 19:40 | -0.24701 | -78.48220 | 14723 ft | 367 kts | 170° |
| 2026-04-26 19:40 | -0.27078 | -78.47474 | 14721 ft | 349 kts | 171° |
| 2026-04-26 19:40 | -0.29331 | -78.46763 | 14719 ft | 332 kts | 171° |
| 2026-04-26 19:41 | -0.31483 | -78.46086 | 14723 ft | 317 kts | 171° |
| 2026-04-26 19:41 | -0.33540 | -78.45443 | 14720 ft | 304 kts | 172° |
| 2026-04-26 19:41 | -0.35513 | -78.44831 | 14720 ft | 292 kts | 172° |
| 2026-04-26 19:41 | -0.36763 | -78.44333 | 14716 ft | 293 kts | 158° |
| 2026-04-26 19:42 | -0.38596 | -78.42336 | 14721 ft | 302 kts | 115° |
| 2026-04-26 19:42 | -0.38916 | -78.40286 | 14718 ft | 302 kts | 81° |
| 2026-04-26 19:42 | -0.38234 | -78.38355 | 14719 ft | 293 kts | 49° |
| 2026-04-26 19:42 | -0.36823 | -78.36995 | 14586 ft | 275 kts | 20° |
| 2026-04-26 19:43 | -0.35123 | -78.36333 | 14416 ft | 252 kts | 358° |
| 2026-04-26 19:43 | -0.33448 | -78.36236 | 14317 ft | 236 kts | 350° |
| 2026-04-26 19:43 | -0.31822 | -78.36142 | 14210 ft | 235 kts | 356° |
| 2026-04-26 19:43 | -0.30224 | -78.35838 | 14075 ft | 234 kts | 4° |
| 2026-04-26 19:44 | -0.28701 | -78.35345 | 13932 ft | 227 kts | 10° |
| 2026-04-26 19:44 | -0.27266 | -78.34780 | 13675 ft | 217 kts | 9° |
| 2026-04-26 19:44 | -0.25838 | -78.34583 | 13151 ft | 203 kts | 355° |
| 2026-04-26 19:44 | -0.24443 | -78.34774 | 12499 ft | 205 kts | 349° |
| 2026-04-26 19:45 | -0.23019 | -78.35017 | 11864 ft | 211 kts | 352° |
| 2026-04-26 19:45 | -0.21532 | -78.35148 | 11086 ft | 219 kts | 358° |
| 2026-04-26 19:45 | -0.19990 | -78.35157 | 10213 ft | 227 kts | 2° |
| 2026-04-26 19:45 | -0.18396 | -78.35168 | 9326 ft | 230 kts | 353° |
| 2026-04-26 19:46 | -0.16807 | -78.35233 | 8601 ft | 229 kts | 353° |
| 2026-04-26 19:46 | -0.15237 | -78.35334 | 8123 ft | 219 kts | 355° |
| 2026-04-26 19:46 | -0.13798 | -78.35389 | 7912 ft | 192 kts | 355° |
| 2026-04-26 19:46 | -0.12584 | -78.35443 | 7856 ft | 155 kts | 359° |
| 2026-04-26 19:47 | -0.11743 | -78.35473 | 7826 ft | 81 kts | 357° |
| 2026-04-26 19:47 | -0.11399 | -78.35489 | 7816 ft | 69 kts | 357° |
| 2026-04-26 19:47 | -0.10753 | -78.35517 | 7784 ft | 51 kts | 358° |
| 2026-04-26 19:47 | -0.10576 | -78.35584 | 7780 ft | 27 kts | 279° |
| 2026-04-26 19:48 | -0.10671 | -78.35685 | 7785 ft | 23 kts | 184° |
| 2026-04-26 19:48 | -0.10835 | -78.35677 | 7792 ft | 24 kts | 178° |